createdAt,value
2018-04-11T00:00:21.425Z,82.03
2018-04-11T00:01:21.431Z,81.34
2018-04-11T00:02:21.426Z,81.05
2018-04-11T00:03:21.453Z,81.23
2018-04-11T00:04:21.430Z,80.53
2018-04-11T00:05:21.435Z,80.63
2018-04-11T00:06:21.464Z,80.44
2018-04-11T00:07:21.442Z,80.98
2018-04-11T00:08:21.486Z,80.65
2018-04-11T00:09:21.446Z,81.28
2018-04-11T00:10:21.467Z,80.35
2018-04-11T00:11:21.482Z,80.19
2018-04-11T00:12:21.460Z,80.87
2018-04-11T00:13:21.480Z,81.41
2018-04-11T00:14:21.508Z,81.31
2018-04-11T00:15:21.457Z,82.21
2018-04-11T00:16:21.463Z,80.87
2018-04-11T00:17:21.476Z,81.67
2018-04-11T00:18:21.469Z,81.66
2018-04-11T00:19:21.471Z,81.61
2018-04-11T00:20:21.495Z,82.27
2018-04-11T00:21:21.485Z,82.7
2018-04-11T00:22:21.508Z,81.94
2018-04-11T00:23:21.538Z,81.64
2018-04-11T00:24:21.514Z,81.12
2018-04-11T00:25:21.583Z,81.09
2018-04-11T00:26:21.507Z,81.04
2018-04-11T00:27:21.519Z,81.55
2018-04-11T00:28:21.558Z,81
2018-04-11T00:29:21.561Z,80.34
2018-04-11T00:30:21.514Z,81.37
2018-04-11T00:31:21.522Z,81.26
2018-04-11T00:32:21.522Z,81.96
2018-04-11T00:33:21.598Z,80.73
2018-04-11T00:34:21.534Z,81.77
2018-04-11T00:35:21.700Z,81.75
2018-04-11T00:36:21.540Z,81.89
2018-04-11T00:37:21.520Z,81.88
2018-04-11T00:38:21.553Z,81.26
2018-04-11T00:39:21.532Z,81.16
2018-04-11T00:40:21.525Z,82
2018-04-11T00:41:21.575Z,81.36
2018-04-11T00:42:21.533Z,81.14
2018-04-11T00:43:21.549Z,82.17
2018-04-11T00:44:21.673Z,81.48
2018-04-11T00:45:21.663Z,81.05
2018-04-11T00:46:21.552Z,81.03
2018-04-11T00:47:21.551Z,81.24
2018-04-11T00:48:21.568Z,81.5
2018-04-11T00:49:21.577Z,81.55
2018-04-11T00:50:21.595Z,81.11
2018-04-11T00:51:21.573Z,81.44
2018-04-11T00:52:21.606Z,82.42
2018-04-11T00:53:21.638Z,81.79
2018-04-11T00:54:21.675Z,81.01
2018-04-11T00:55:21.578Z,81.29
2018-04-11T00:56:21.743Z,82.47
2018-04-11T00:57:21.585Z,82.3
2018-04-11T00:58:21.628Z,81.53
2018-04-11T00:59:21.615Z,82.36
2018-04-11T01:00:21.600Z,81.84
2018-04-11T01:01:21.594Z,81.89
2018-04-11T01:02:21.598Z,82.3
2018-04-11T01:03:21.595Z,81.77
2018-04-11T01:04:21.617Z,81.5
2018-04-11T01:05:23.909Z,81.75
2018-04-11T01:06:21.611Z,81.83
2018-04-11T01:07:21.598Z,82.07
2018-04-11T01:08:21.639Z,81.33
2018-04-11T01:09:21.611Z,82.09
2018-04-11T01:10:21.611Z,81.91
2018-04-11T01:11:21.607Z,81.65
2018-04-11T01:12:21.616Z,81.14
2018-04-11T01:13:21.622Z,81.32
2018-04-11T01:14:21.639Z,80.89
2018-04-11T01:15:21.630Z,82.26
2018-04-11T01:16:21.673Z,81.9
2018-04-11T01:17:21.652Z,82.47
2018-04-11T01:18:21.653Z,81.7
2018-04-11T01:19:21.661Z,81.26
2018-04-11T01:20:21.645Z,81.68
2018-04-11T01:21:21.670Z,82.42
2018-04-11T01:22:21.687Z,81.5
2018-04-11T01:23:21.659Z,81.55
2018-04-11T01:24:21.764Z,82.57
2018-04-11T01:25:21.653Z,82.33
2018-04-11T01:26:21.668Z,82.22
2018-04-11T01:27:21.671Z,81.95
2018-04-11T01:28:21.806Z,82.03
2018-04-11T01:29:21.669Z,81.41
2018-04-11T01:30:21.666Z,81.23
2018-04-11T01:31:21.679Z,80.83
2018-04-11T01:32:21.680Z,80.9
2018-04-11T01:33:21.692Z,82.66
2018-04-11T01:34:21.699Z,81.7
2018-04-11T01:35:21.707Z,82.93
2018-04-11T01:36:21.698Z,82.63
2018-04-11T01:37:21.718Z,82.81
2018-04-11T01:38:21.825Z,82.5
2018-04-11T01:39:21.708Z,82
2018-04-11T01:40:21.708Z,81.96
2018-04-11T01:41:21.710Z,82.01
2018-04-11T01:42:21.967Z,82.15
2018-04-11T01:43:21.770Z,81.91
2018-04-11T01:44:21.744Z,82.08
2018-04-11T01:45:21.725Z,82.58
2018-04-11T01:46:21.786Z,82.56
2018-04-11T01:47:21.739Z,82.18
2018-04-11T01:48:21.751Z,82.14
2018-04-11T01:49:21.720Z,81.78
2018-04-11T01:50:21.916Z,81.71
2018-04-11T01:51:21.745Z,81.58
2018-04-11T01:52:21.790Z,82.28
2018-04-11T01:53:21.750Z,81.5
2018-04-11T01:54:21.750Z,82.67
2018-04-11T01:55:21.779Z,82.5
2018-04-11T01:56:21.768Z,82.28
2018-04-11T01:57:21.750Z,82.01
2018-04-11T01:58:21.765Z,82.06
2018-04-11T01:59:21.775Z,81.88
2018-04-11T02:00:21.783Z,82.45
2018-04-11T02:01:21.762Z,82.39
2018-04-11T02:02:21.778Z,82.65
2018-04-11T02:03:21.767Z,82.94
2018-04-11T02:04:21.819Z,82.38
2018-04-11T02:05:21.906Z,81.94
2018-04-11T02:06:21.790Z,82.37
2018-04-11T02:07:21.859Z,82.66
2018-04-11T02:08:21.807Z,82.28
2018-04-11T02:09:21.817Z,82.68
2018-04-11T02:10:21.809Z,82.76
2018-04-11T02:11:21.810Z,82.51
2018-04-11T02:12:21.834Z,83.06
2018-04-11T02:13:21.798Z,82.58
2018-04-11T02:14:21.821Z,82.75
2018-04-11T02:15:21.847Z,82.3
2018-04-11T02:16:21.856Z,81.91
2018-04-11T02:17:21.815Z,81.98
2018-04-11T02:18:21.835Z,82.6
2018-04-11T02:19:21.829Z,82.3
2018-04-11T02:20:21.963Z,81.79
2018-04-11T02:21:21.828Z,82.41
2018-04-11T02:22:21.837Z,82.33
2018-04-11T02:23:21.824Z,82.09
2018-04-11T02:24:21.833Z,81.94
2018-04-11T02:25:21.865Z,81.99
2018-04-11T02:26:21.848Z,82.54
2018-04-11T02:27:21.838Z,82.62
2018-04-11T02:28:21.855Z,81.75
2018-04-11T02:29:21.888Z,81.7
2018-04-11T02:30:21.918Z,82.66
2018-04-11T02:31:21.868Z,82.38
2018-04-11T02:32:21.866Z,82.04
2018-04-11T02:33:21.863Z,82.44
2018-04-11T02:34:21.978Z,82.83
2018-04-11T02:35:21.887Z,82.3
2018-04-11T02:36:21.885Z,82.33
2018-04-11T02:37:21.933Z,82.67
2018-04-11T02:38:21.979Z,82.76
2018-04-11T02:39:21.890Z,82.66
2018-04-11T02:40:21.931Z,82.11
2018-04-11T02:41:21.952Z,82.96
2018-04-11T02:42:21.918Z,83.14
2018-04-11T02:43:21.888Z,83.18
2018-04-11T02:44:21.890Z,82.61
2018-04-11T02:45:21.900Z,82.39
2018-04-11T02:46:21.887Z,82.89
2018-04-11T02:47:21.903Z,82.46
2018-04-11T02:48:21.902Z,82.02
2018-04-11T02:49:21.907Z,82.1
2018-04-11T02:50:21.915Z,82.49
2018-04-11T02:51:21.945Z,82.5
2018-04-11T02:52:21.929Z,83.27
2018-04-11T02:53:21.915Z,82.59
2018-04-11T02:54:21.941Z,82.35
2018-04-11T02:55:21.928Z,82.38
2018-04-11T02:56:21.925Z,81.8
2018-04-11T02:57:22.080Z,82.24
2018-04-11T02:58:21.935Z,82.44
2018-04-11T02:59:21.939Z,82.55
2018-04-11T03:00:21.994Z,82.66
2018-04-11T03:01:21.949Z,82.85
2018-04-11T03:02:21.952Z,82.42
2018-04-11T03:03:22.038Z,82.06
2018-04-11T03:04:21.970Z,82.04
2018-04-11T03:05:21.960Z,82.31
2018-04-11T03:06:22.189Z,82.39
2018-04-11T03:07:22.027Z,82.37
2018-04-11T03:08:21.968Z,82.39
2018-04-11T03:09:21.996Z,81.9
2018-04-11T03:10:21.984Z,82.06
2018-04-11T03:11:22.103Z,82.16
2018-04-11T03:12:21.994Z,82.07
2018-04-11T03:13:21.982Z,82.35
2018-04-11T03:14:21.978Z,82.27
2018-04-11T03:15:21.997Z,82.02
2018-04-11T03:16:21.995Z,82.42
2018-04-11T03:17:21.991Z,82.49
2018-04-11T03:18:21.998Z,82.34
2018-04-11T03:19:22.075Z,83.03
2018-04-11T03:20:22.003Z,82.59
2018-04-11T03:21:21.997Z,82.3
2018-04-11T03:22:22.005Z,82.47
2018-04-11T03:23:22.003Z,82.44
2018-04-11T03:24:22.014Z,82.64
2018-04-11T03:25:22.010Z,82.41
2018-04-11T03:26:22.018Z,82.67
2018-04-11T03:27:22.026Z,82.04
2018-04-11T03:28:22.034Z,82.57
2018-04-11T03:29:22.037Z,82.44
2018-04-11T03:30:22.052Z,82.5
2018-04-11T03:31:22.040Z,82.51
2018-04-11T03:32:22.039Z,82.34
2018-04-11T03:33:22.035Z,82.71
2018-04-11T03:34:22.090Z,82.15
2018-04-11T03:35:22.034Z,82.55
2018-04-11T03:36:22.035Z,82.44
2018-04-11T03:37:22.056Z,82.32
2018-04-11T03:38:22.048Z,82.44
2018-04-11T03:39:22.047Z,81.86
2018-04-11T03:40:22.064Z,81.9
2018-04-11T03:41:22.056Z,82.36
2018-04-11T03:42:22.050Z,82.81
2018-04-11T03:43:22.064Z,83.46
2018-04-11T03:44:22.066Z,83.09
2018-04-11T03:45:22.066Z,83.25
2018-04-11T03:46:22.067Z,82.95
2018-04-11T03:47:22.078Z,82.69
2018-04-11T03:48:22.085Z,82.6
2018-04-11T03:49:22.083Z,82.43
2018-04-11T03:50:22.092Z,82.05
2018-04-11T03:51:22.099Z,82.29
2018-04-11T03:52:22.083Z,82.53
2018-04-11T03:53:22.111Z,83.35
2018-04-11T03:54:22.096Z,83.39
2018-04-11T03:55:22.122Z,82.72
2018-04-11T03:56:22.117Z,83.2
2018-04-11T03:57:22.102Z,82.99
2018-04-11T03:58:22.110Z,82.77
2018-04-11T03:59:22.232Z,82.47
2018-04-11T04:00:22.131Z,82.72
2018-04-11T04:01:22.109Z,82.62
2018-04-11T04:02:22.144Z,82.49
2018-04-11T04:03:22.146Z,82.83
2018-04-11T04:04:22.127Z,82.72
2018-04-11T04:05:22.124Z,82.76
2018-04-11T04:06:22.125Z,82.79
2018-04-11T04:07:22.134Z,82.86
2018-04-11T04:08:22.171Z,82.95
2018-04-11T04:09:22.127Z,82.65
2018-04-11T04:10:22.170Z,82.9
2018-04-11T04:11:22.134Z,82.61
2018-04-11T04:12:22.143Z,82.87
2018-04-11T04:13:22.169Z,83.21
2018-04-11T04:14:22.157Z,83.44
2018-04-11T04:15:22.153Z,83.1
2018-04-11T04:16:22.157Z,82.98
2018-04-11T04:17:22.192Z,83.72
2018-04-11T04:18:22.179Z,83.78
2018-04-11T04:19:22.174Z,83.7
2018-04-11T04:20:22.173Z,84
2018-04-11T04:21:22.178Z,84.08
2018-04-11T04:22:22.186Z,83.49
2018-04-11T04:23:22.175Z,84.45
2018-04-11T04:24:22.188Z,84.66
2018-04-11T04:25:22.191Z,83.95
2018-04-11T04:26:22.211Z,83.67
2018-04-11T04:27:22.196Z,84.08
2018-04-11T04:28:22.202Z,83.58
2018-04-11T04:29:22.192Z,83.85
2018-04-11T04:30:22.224Z,83.86
2018-04-11T04:31:22.196Z,83.68
2018-04-11T04:32:22.195Z,83.99
2018-04-11T04:33:22.203Z,84.26
2018-04-11T04:34:22.203Z,84.1
2018-04-11T04:35:22.211Z,85.16
2018-04-11T04:36:22.232Z,84.45
2018-04-11T04:37:22.209Z,83.94
2018-04-11T04:38:22.216Z,84.41
2018-04-11T04:39:22.221Z,84.41
2018-04-11T04:40:22.239Z,84.22
2018-04-11T04:41:22.238Z,84.5
2018-04-11T04:42:22.233Z,84.62
2018-04-11T04:43:22.241Z,84.42
2018-04-11T04:44:22.258Z,84.26
2018-04-11T04:45:22.246Z,84.53
2018-04-11T04:46:22.261Z,84.24
2018-04-11T04:47:22.511Z,84.5
2018-04-11T04:48:22.264Z,84.25
2018-04-11T04:49:22.255Z,84.29
2018-04-11T04:50:22.252Z,84.14
2018-04-11T04:51:22.280Z,84.53
2018-04-11T04:52:22.255Z,84.68
2018-04-11T04:53:22.270Z,84.25
2018-04-11T04:54:22.303Z,84.38
2018-04-11T04:55:22.263Z,84.26
2018-04-11T04:56:22.318Z,84.57
2018-04-11T04:57:22.279Z,84.79
2018-04-11T04:58:22.414Z,85.72
2018-04-11T04:59:22.279Z,85.18
2018-04-11T05:00:22.287Z,84.96
2018-04-11T05:01:22.301Z,85.23
2018-04-11T05:02:22.288Z,85.45
2018-04-11T05:03:22.378Z,85.7
2018-04-11T05:04:22.303Z,85.45
2018-04-11T05:05:22.311Z,85.84
2018-04-11T05:06:22.318Z,85.83
2018-04-11T05:07:22.322Z,85.4
2018-04-11T05:08:22.345Z,85.69
2018-04-11T05:09:22.323Z,85.64
2018-04-11T05:10:22.324Z,85.34
2018-04-11T05:11:22.303Z,86.21
2018-04-11T05:12:22.322Z,85.29
2018-04-11T05:13:22.322Z,85.94
2018-04-11T05:14:22.326Z,85.98
2018-04-11T05:15:22.401Z,86.23
2018-04-11T05:16:22.357Z,86.67
2018-04-11T05:17:22.381Z,86.63
2018-04-11T05:18:22.471Z,86.44
2018-04-11T05:19:22.357Z,86.8
2018-04-11T05:20:22.363Z,86.25
2018-04-11T05:21:22.447Z,86.62
2018-04-11T05:22:22.370Z,86.33
2018-04-11T05:23:22.556Z,86.51
2018-04-11T05:24:22.506Z,86.88
2018-04-11T05:25:22.394Z,87.31
2018-04-11T05:26:22.407Z,86.76
2018-04-11T05:27:22.373Z,86.8
2018-04-11T05:28:22.399Z,86.15
2018-04-11T05:29:22.391Z,86.66
2018-04-11T05:30:22.415Z,86.14
2018-04-11T05:31:22.436Z,87.11
2018-04-11T05:32:22.398Z,87.13
2018-04-11T05:33:22.409Z,87
2018-04-11T05:34:22.388Z,86.79
2018-04-11T05:35:22.405Z,86.9
2018-04-11T05:36:22.429Z,86.75
2018-04-11T05:37:22.406Z,86.12
2018-04-11T05:38:22.397Z,86.45
2018-04-11T05:39:22.418Z,86.79
2018-04-11T05:40:22.423Z,86.5
2018-04-11T05:41:22.444Z,87.15
2018-04-11T05:42:22.433Z,87.13
2018-04-11T05:43:22.414Z,87.05
2018-04-11T05:44:22.415Z,86.85
2018-04-11T05:45:22.410Z,87.35
2018-04-11T05:46:22.444Z,87.75
2018-04-11T05:47:22.594Z,86.97
2018-04-11T05:48:22.424Z,86.92
2018-04-11T05:49:22.437Z,86.47
2018-04-11T05:50:22.438Z,87.35
2018-04-11T05:51:22.451Z,87.46
2018-04-11T05:52:22.452Z,86.93
2018-04-11T05:53:22.498Z,87.48
2018-04-11T05:54:22.465Z,87.09
2018-04-11T05:55:22.444Z,86.88
2018-04-11T05:56:22.442Z,86.46
2018-04-11T05:57:22.492Z,87.23
2018-04-11T05:58:22.450Z,87.49
2018-04-11T05:59:22.473Z,87.27
2018-04-11T06:00:22.463Z,86.82
2018-04-11T06:01:22.525Z,86.67
2018-04-11T06:02:22.505Z,86.8
2018-04-11T06:03:22.464Z,87.44
2018-04-11T06:04:22.470Z,87.68
2018-04-11T06:05:22.477Z,87.6
2018-04-11T06:06:22.472Z,88.08
2018-04-11T06:07:22.608Z,87.62
2018-04-11T06:08:22.493Z,87.97
2018-04-11T06:09:22.487Z,87.74
2018-04-11T06:10:22.591Z,87.71
2018-04-11T06:11:22.573Z,87.3
2018-04-11T06:12:22.488Z,87.11
2018-04-11T06:13:22.510Z,87.74
2018-04-11T06:14:22.526Z,87.56
2018-04-11T06:15:22.532Z,88.56
2018-04-11T06:16:22.513Z,87.73
2018-04-11T06:17:22.494Z,88.48
2018-04-11T06:18:22.550Z,88.42
2018-04-11T06:19:22.524Z,87.86
2018-04-11T06:20:22.519Z,88.77
2018-04-11T06:21:22.507Z,88.64
2018-04-11T06:22:22.627Z,87.96
2018-04-11T06:23:22.519Z,87.95
2018-04-11T06:24:22.555Z,87.57
2018-04-11T06:25:22.542Z,87.23
2018-04-11T06:26:22.533Z,88.23
2018-04-11T06:27:22.550Z,87.52
2018-04-11T06:28:22.545Z,88.2
2018-04-11T06:29:22.558Z,87.94
2018-04-11T06:30:22.889Z,87.98
2018-04-11T06:31:22.555Z,88.94
2018-04-11T06:32:22.553Z,88.3
2018-04-11T06:33:22.559Z,88.24
2018-04-11T06:34:22.567Z,88.6
2018-04-11T06:35:22.573Z,87.95
2018-04-11T06:36:22.553Z,88.55
2018-04-11T06:37:22.583Z,88.19
2018-04-11T06:38:22.590Z,88.59
2018-04-11T06:39:22.575Z,88.26
2018-04-11T06:40:22.627Z,87.98
2018-04-11T06:41:22.612Z,87.75
2018-04-11T06:42:22.609Z,87.89
2018-04-11T06:43:22.568Z,87.83
2018-04-11T06:44:22.584Z,87.53
2018-04-11T06:45:22.613Z,88.66
2018-04-11T06:46:22.590Z,87.95
2018-04-11T06:47:22.644Z,87.98
2018-04-11T06:48:22.615Z,88.89
2018-04-11T06:49:22.590Z,88.49
2018-04-11T06:50:22.631Z,88.8
2018-04-11T06:51:22.610Z,88.47
2018-04-11T06:52:22.604Z,88.45
2018-04-11T06:53:22.613Z,88.35
2018-04-11T06:54:22.610Z,88.79
2018-04-11T06:55:22.644Z,88.38
2018-04-11T06:56:22.695Z,87.46
2018-04-11T06:57:22.629Z,88.47
2018-04-11T06:58:22.638Z,88.34
2018-04-11T06:59:22.669Z,88.43
2018-04-11T07:00:22.634Z,88.68
2018-04-11T07:01:22.618Z,87.96
2018-04-11T07:02:22.655Z,88.26
2018-04-11T07:03:22.730Z,88.68
2018-04-11T07:04:22.646Z,88.3
2018-04-11T07:05:22.639Z,88.52
2018-04-11T07:06:22.654Z,88.09
2018-04-11T07:07:22.768Z,88.05
2018-04-11T07:08:22.642Z,87.16
2018-04-11T07:09:22.670Z,88.2
2018-04-11T07:10:22.671Z,88.07
2018-04-11T07:11:22.658Z,87.21
2018-04-11T07:12:22.666Z,87.25
2018-04-11T07:13:22.710Z,87.22
2018-04-11T07:14:22.668Z,87.33
2018-04-11T07:15:22.723Z,87.72
2018-04-11T07:16:22.671Z,87.45
2018-04-11T07:17:22.683Z,87.51
2018-04-11T07:18:22.727Z,87.16
2018-04-11T07:19:22.673Z,87.51
2018-04-11T07:20:22.708Z,87.31
2018-04-11T07:21:22.699Z,87.46
2018-04-11T07:22:22.697Z,86.48
2018-04-11T07:23:22.773Z,85.48
2018-04-11T07:24:22.704Z,85.85
2018-04-11T07:25:22.718Z,85.94
2018-04-11T07:26:22.721Z,86.05
2018-04-11T07:27:22.700Z,85.31
2018-04-11T07:28:22.700Z,85.6
2018-04-11T07:29:22.755Z,85.69
2018-04-11T07:30:22.709Z,84.66
2018-04-11T07:31:22.731Z,84.83
2018-04-11T07:32:22.832Z,84.85
2018-04-11T07:33:22.738Z,85.25
2018-04-11T07:34:22.745Z,85
2018-04-11T07:35:22.737Z,85.01
2018-04-11T07:36:22.739Z,85.02
2018-04-11T07:37:22.735Z,85.1
2018-04-11T07:38:22.724Z,83.97
2018-04-11T07:39:22.736Z,85.39
2018-04-11T07:40:22.771Z,84.42
2018-04-11T07:41:22.730Z,82.75
2018-04-11T07:42:22.733Z,83.05
2018-04-11T07:43:22.751Z,83.27
2018-04-11T07:44:22.750Z,82.59
2018-04-11T07:45:22.759Z,83.01
2018-04-11T07:46:22.757Z,83.04
2018-04-11T07:47:22.759Z,82.27
2018-04-11T07:48:22.764Z,81.45
2018-04-11T07:49:22.769Z,82.09
2018-04-11T07:50:22.766Z,81.51
2018-04-11T07:51:22.757Z,81.38
2018-04-11T07:52:22.769Z,80.83
2018-04-11T07:53:22.788Z,80.77
2018-04-11T07:54:22.792Z,80.88
2018-04-11T07:55:22.768Z,80.7
2018-04-11T07:56:22.776Z,80.54
2018-04-11T07:57:22.815Z,79.69
2018-04-11T07:58:22.799Z,80.34
2018-04-11T07:59:22.778Z,80.56
2018-04-11T08:00:22.793Z,81
2018-04-11T08:01:22.790Z,81.04
2018-04-11T08:02:22.903Z,80.61
2018-04-11T08:03:22.898Z,80.3
2018-04-11T08:04:22.837Z,80.87
2018-04-11T08:05:22.845Z,81.53
2018-04-11T08:06:22.895Z,81.33
2018-04-11T08:07:22.837Z,81.51
2018-04-11T08:08:22.824Z,82.32
2018-04-11T08:09:22.811Z,80.34
2018-04-11T08:10:25.105Z,80.42
2018-04-11T08:11:22.835Z,78.05
2018-04-11T08:12:22.842Z,77.24
2018-04-11T08:13:22.868Z,77.36
2018-04-11T08:14:22.849Z,77.72
2018-04-11T08:15:22.846Z,76.41
2018-04-11T08:16:22.909Z,77.22
2018-04-11T08:17:22.855Z,77.93
2018-04-11T08:18:22.877Z,77.69
2018-04-11T08:19:22.850Z,77.81
2018-04-11T08:20:22.882Z,77.47
2018-04-11T08:21:22.866Z,77.05
2018-04-11T08:22:22.979Z,78.45
2018-04-11T08:23:22.888Z,78.79
2018-04-11T08:24:22.878Z,80.79
2018-04-11T08:25:22.876Z,81.29
2018-04-11T08:26:22.882Z,80.49
2018-04-11T08:27:22.875Z,78.82
2018-04-11T08:28:22.879Z,77.21
2018-04-11T08:29:22.950Z,77.07
2018-04-11T08:30:22.892Z,77.07
2018-04-11T08:31:22.889Z,76.78
2018-04-11T08:32:22.886Z,76.81
2018-04-11T08:33:22.883Z,77.5
2018-04-11T08:34:22.898Z,75.82
2018-04-11T08:35:22.941Z,76.1
2018-04-11T08:36:22.896Z,76.03
2018-04-11T08:37:23.031Z,74.5
2018-04-11T08:38:23.077Z,74.85
2018-04-11T08:39:22.925Z,74.39
2018-04-11T08:40:22.907Z,75.4
2018-04-11T08:41:22.921Z,73.98
2018-04-11T08:42:22.938Z,75.01
2018-04-11T08:43:22.976Z,74.29
2018-04-11T08:44:22.942Z,74.05
2018-04-11T08:45:22.918Z,73.73
2018-04-11T08:46:22.919Z,73.37
2018-04-11T08:47:22.959Z,73.12
2018-04-11T08:48:22.959Z,72.28
2018-04-11T08:49:22.967Z,70.73
2018-04-11T08:50:22.953Z,71.5
2018-04-11T08:51:22.953Z,71.53
2018-04-11T08:52:22.945Z,71.66
2018-04-11T08:53:22.976Z,72.36
2018-04-11T08:54:22.961Z,72.18
2018-04-11T08:55:22.951Z,73.01
2018-04-11T08:56:22.950Z,71.09
2018-04-11T08:57:23.017Z,72.25
2018-04-11T08:58:22.977Z,72.12
2018-04-11T08:59:22.959Z,71.86
2018-04-11T09:00:22.972Z,73.28
2018-04-11T09:01:22.969Z,72.52
2018-04-11T09:02:23.006Z,72.76
2018-04-11T09:03:23.007Z,73.8
2018-04-11T09:04:22.986Z,72.1
2018-04-11T09:05:23.064Z,72.8
2018-04-11T09:06:23.044Z,70.89
2018-04-11T09:07:23.011Z,70.76
2018-04-11T09:08:23.059Z,70.98
2018-04-11T09:09:22.998Z,71.03
2018-04-11T09:10:23.013Z,69.69
2018-04-11T09:11:23.022Z,70.35
2018-04-11T09:12:23.001Z,69.77
2018-04-11T09:13:23.053Z,70.13
2018-04-11T09:14:23.039Z,70.92
2018-04-11T09:15:23.023Z,71.04
2018-04-11T09:16:23.023Z,70.45
2018-04-11T09:17:23.022Z,69.41
2018-04-11T09:18:23.049Z,69.55
2018-04-11T09:19:23.083Z,70.39
2018-04-11T09:20:23.056Z,70.45
2018-04-11T09:21:23.034Z,69.76
2018-04-11T09:22:23.033Z,69.74
2018-04-11T09:23:23.074Z,69.32
2018-04-11T09:24:23.033Z,69.28
2018-04-11T09:25:23.137Z,68.35
2018-04-11T09:26:23.068Z,69.09
2018-04-11T09:27:23.043Z,69.49
2018-04-11T09:28:23.080Z,69.89
2018-04-11T09:29:23.085Z,67.96
2018-04-11T09:30:23.072Z,67.29
2018-04-11T09:31:23.058Z,66.82
2018-04-11T09:32:23.080Z,66.67
2018-04-11T09:33:23.108Z,66.73
2018-04-11T09:34:23.097Z,65.39
2018-04-11T09:35:23.082Z,66.75
2018-04-11T09:36:23.072Z,66.17
2018-04-11T09:37:23.109Z,68.57
2018-04-11T09:38:23.101Z,69.15
2018-04-11T09:39:23.085Z,68.39
2018-04-11T09:40:23.095Z,66.62
2018-04-11T09:41:23.087Z,67.05
2018-04-11T09:42:23.091Z,66.56
2018-04-11T09:43:23.159Z,64.96
2018-04-11T09:44:23.208Z,66.1
2018-04-11T09:45:23.103Z,66.42
2018-04-11T09:46:23.115Z,66.75
2018-04-11T09:47:23.109Z,67.25
2018-04-11T09:48:23.143Z,67.54
2018-04-11T09:49:23.135Z,67.95
2018-04-11T09:50:23.112Z,67.73
2018-04-11T09:51:23.125Z,67.3
2018-04-11T09:52:23.274Z,67.01
2018-04-11T09:53:23.178Z,66.6
2018-04-11T09:54:23.127Z,67.22
2018-04-11T09:55:23.207Z,65.41
2018-04-11T09:56:23.143Z,65.22
2018-04-11T09:57:23.148Z,66.55
2018-04-11T09:58:23.152Z,67.34
2018-04-11T09:59:23.143Z,67.71
2018-04-11T10:00:23.189Z,68.46
2018-04-11T10:01:23.163Z,66.4
2018-04-11T10:02:23.182Z,62.74
2018-04-11T10:03:23.160Z,64.02
2018-04-11T10:04:23.175Z,63.88
2018-04-11T10:05:23.159Z,62.67
2018-04-11T10:06:23.168Z,61.2
2018-04-11T10:07:23.182Z,60.14
2018-04-11T10:08:23.184Z,59.99
2018-04-11T10:09:23.189Z,60.29
2018-04-11T10:10:23.200Z,62.37
2018-04-11T10:11:23.176Z,61.8
2018-04-11T10:12:23.189Z,62.03
2018-04-11T10:13:23.216Z,58.64
2018-04-11T10:14:23.204Z,57.35
2018-04-11T10:15:23.206Z,58.68
2018-04-11T10:16:23.182Z,60.64
2018-04-11T10:17:23.206Z,61.56
2018-04-11T10:18:23.198Z,59.54
2018-04-11T10:19:23.198Z,59.64
2018-04-11T10:20:23.214Z,58.85
2018-04-11T10:21:23.240Z,60.14
2018-04-11T10:22:23.223Z,61.26
2018-04-11T10:23:23.262Z,60.36
2018-04-11T10:24:23.222Z,60.55
2018-04-11T10:25:23.224Z,62.12
2018-04-11T10:26:23.239Z,59.74
2018-04-11T10:27:23.232Z,60.19
2018-04-11T10:28:23.267Z,60.65
2018-04-11T10:29:23.243Z,61.77
2018-04-11T10:30:23.260Z,63.21
2018-04-11T10:31:23.245Z,61.12
2018-04-11T10:32:23.242Z,59.32
2018-04-11T10:33:23.316Z,59.8
2018-04-11T10:34:23.282Z,57.69
2018-04-11T10:35:23.248Z,57.01
2018-04-11T10:36:23.262Z,55.67
2018-04-11T10:37:23.249Z,57
2018-04-11T10:38:23.255Z,56.93
2018-04-11T10:39:23.263Z,58.27
2018-04-11T10:40:23.271Z,55.37
2018-04-11T10:41:23.275Z,55.84
2018-04-11T10:42:23.285Z,55.94
2018-04-11T10:43:23.286Z,56.49
2018-04-11T10:44:23.283Z,56.41
2018-04-11T10:45:23.295Z,55.99
2018-04-11T10:46:23.285Z,56.08
2018-04-11T10:47:23.293Z,56.32
2018-04-11T10:48:23.290Z,56.16
2018-04-11T10:49:23.300Z,56
2018-04-11T10:50:23.304Z,54.84
2018-04-11T10:51:23.296Z,56.23
2018-04-11T10:52:23.296Z,55.92
2018-04-11T10:53:23.542Z,56.17
2018-04-11T10:54:23.311Z,56.99
2018-04-11T10:55:23.326Z,56.5
2018-04-11T10:56:23.305Z,53.71
2018-04-11T10:57:23.326Z,55.23
2018-04-11T10:58:23.520Z,54.56
2018-04-11T10:59:23.333Z,53.8
2018-04-11T11:00:23.346Z,51.03
2018-04-11T11:01:23.324Z,52.29
2018-04-11T11:02:23.332Z,52.42
2018-04-11T11:03:23.362Z,51.27
2018-04-11T11:04:23.321Z,50.54
2018-04-11T11:05:23.343Z,48.66
2018-04-11T11:06:23.331Z,50.03
2018-04-11T11:07:23.341Z,52.64
2018-04-11T11:08:23.503Z,48.17
2018-04-11T11:09:23.347Z,46.28
2018-04-11T11:10:23.358Z,48.85
2018-04-11T11:11:23.347Z,45.97
2018-04-11T11:12:23.354Z,45.3
2018-04-11T11:13:23.412Z,47.27
2018-04-11T11:14:23.368Z,48.56
2018-04-11T11:15:23.393Z,46.29
2018-04-11T11:16:23.397Z,46.9
2018-04-11T11:17:23.360Z,49.22
2018-04-11T11:18:23.442Z,50.38
2018-04-11T11:19:23.404Z,49.51
2018-04-11T11:20:23.415Z,49.07
2018-04-11T11:21:23.456Z,44.94
2018-04-11T11:22:23.392Z,46.13
2018-04-11T11:23:23.393Z,47.71
2018-04-11T11:24:23.391Z,49.4
2018-04-11T11:25:23.426Z,48.38
2018-04-11T11:26:23.415Z,48.84
2018-04-11T11:27:23.400Z,49.57
2018-04-11T11:28:23.424Z,49.57
2018-04-11T11:29:23.400Z,49.77
2018-04-11T11:30:23.407Z,49.08
2018-04-11T11:31:23.420Z,48.86
2018-04-11T11:32:23.410Z,46.42
2018-04-11T11:33:23.424Z,45.71
2018-04-11T11:34:23.492Z,46.49
2018-04-11T11:35:23.414Z,46.21
2018-04-11T11:36:23.421Z,46.37
2018-04-11T11:37:23.484Z,46.19
2018-04-11T11:38:23.632Z,46.82
2018-04-11T11:39:23.433Z,47.09
2018-04-11T11:40:23.445Z,47.45
2018-04-11T11:41:23.452Z,45.82
2018-04-11T11:42:23.452Z,45.25
2018-04-11T11:43:23.486Z,45.33
2018-04-11T11:44:23.451Z,44.52
2018-04-11T11:45:23.473Z,44.43
2018-04-11T11:46:23.471Z,44.44
2018-04-11T11:47:23.470Z,45.09
2018-04-11T11:48:23.556Z,45.77
2018-04-11T11:49:23.501Z,46
2018-04-11T11:50:23.480Z,45.16
2018-04-11T11:51:23.497Z,44.3
2018-04-11T11:52:23.474Z,45.85
2018-04-11T11:53:23.602Z,46.07
2018-04-11T11:54:23.486Z,45.39
2018-04-11T11:55:23.495Z,44.55
2018-04-11T11:56:23.519Z,43.97
2018-04-11T11:57:23.548Z,44.84
2018-04-11T11:58:23.494Z,44.7
2018-04-11T11:59:23.495Z,45.28
2018-04-11T12:00:23.555Z,46.56
2018-04-11T12:01:23.516Z,46.06
2018-04-11T12:02:23.509Z,46.61
2018-04-11T12:03:23.527Z,46.88
2018-04-11T12:04:23.541Z,46.05
2018-04-11T12:05:23.510Z,46.75
2018-04-11T12:06:23.519Z,48.46
2018-04-11T12:07:23.525Z,45.6
2018-04-11T12:08:23.527Z,44.37
2018-04-11T12:09:23.533Z,44.2
2018-04-11T12:10:23.534Z,44.47
2018-04-11T12:11:23.546Z,45.53
2018-04-11T12:12:23.535Z,45.63
2018-04-11T12:13:23.582Z,47.25
2018-04-11T12:14:23.558Z,44.6
2018-04-11T12:15:23.556Z,44
2018-04-11T12:16:23.544Z,44.4
2018-04-11T12:17:23.688Z,44.25
2018-04-11T12:18:23.554Z,44.09
2018-04-11T12:19:23.661Z,44.79
2018-04-11T12:20:23.659Z,45.2
2018-04-11T12:21:23.586Z,45.69
2018-04-11T12:22:23.612Z,45.1
2018-04-11T12:23:23.615Z,45.83
2018-04-11T12:24:23.611Z,46.13
2018-04-11T12:25:23.581Z,46
2018-04-11T12:26:23.622Z,45.21
2018-04-11T12:27:23.607Z,45.99
2018-04-11T12:28:23.689Z,46.14
2018-04-11T12:29:23.632Z,45.67
2018-04-11T12:30:23.608Z,45.3
2018-04-11T12:31:23.609Z,45.19
2018-04-11T12:32:23.667Z,44.53
2018-04-11T12:33:23.621Z,45.4
2018-04-11T12:34:23.614Z,42.02
2018-04-11T12:35:23.615Z,44.08
2018-04-11T12:36:23.632Z,44.8
2018-04-11T12:37:23.657Z,44.06
2018-04-11T12:38:23.627Z,44.29
2018-04-11T12:39:23.668Z,43.88
2018-04-11T12:40:23.707Z,42.89
2018-04-11T12:41:23.662Z,44.15
2018-04-11T12:42:23.725Z,43.01
2018-04-11T12:43:23.685Z,40.92
2018-04-11T12:44:23.668Z,39.39
2018-04-11T12:45:23.666Z,40.33
2018-04-11T12:46:23.676Z,40.85
2018-04-11T12:47:23.647Z,41.08
2018-04-11T12:48:23.763Z,40.28
2018-04-11T12:49:23.710Z,39.34
2018-04-11T12:50:23.689Z,40.89
2018-04-11T12:51:23.656Z,39.95
2018-04-11T12:52:23.658Z,39.94
2018-04-11T12:53:23.664Z,40.11
2018-04-11T12:54:23.670Z,40.48
2018-04-11T12:55:23.670Z,41.22
2018-04-11T12:56:23.669Z,40.83